Pagrindinis puslapis
METAR-TAF:

METAR-TAF

Oro uostai :

Gove Peninsula, Australija

platuma: 12-16-12S, ilguma: 136-49-06E, Aukštis: 62 m

Dabartinis oras

Ataskaita buvo paskelbta 45 minutes, ne 07:30 UTC
Vėjas 17 kt iš Pietryčių
Temperatūra 25°C
Drėgmė 74%
Slėgis 1013 hPa
Matomumas 10 km arba daugiau
Su prošvaistėmis ne aukštis 2300 ft
Su prošvaistėmis ne aukštis 2900 ft

METAR: YPGV 220730Z AUTO 14017KT 9999 // BKN023 BKN029 25/20 Q1013

Laikas: 17:45 (08:15 UTC)

Prognozė

Ataskaita buvo paskelbta 1 valandą ir 37 minutes, ne 06:38 UTC
Prognozė galioja nuo 22 metu 08 UTC su 22 metu 20 UTC
Vėjas 18 kt iš Pietryčių
Matomumas 10 km arba daugiau
Išsisklaidę debesys ne aukštis 2200 ft
Nuo 22 metu 0900 UTC
Vėjas 12 kt iš Pietų/Pietryčių
Matomumas 10 km arba daugiau
Išsisklaidę debesys ne aukštis 2000 ft

TAF: YPGV 220638Z 2208/2220 14018KT 9999 SCT022 FM220900 15012KT 9999 SCT020

Orai ataskaitas ir orų prognozės (METAR, TAF).

turimą stotys yra geltonos ir raudonos taškus žemėlapyje.

Perkelti pele per norėdami pamatyti stoties vardą.

Tada spustelėkite, norėdami matyti oro stebėjimo ir prognozės.

Norėdami pakeisti žemėlapį: spustelėkite ant žalios mygtukų su juodo kryžiaus žemyn,; žalią mygtuką su brūkšneliu, jei norite nutolinti; arba žalių rodyklių gretimoms žemėlapius.


METAR-TAF: